createdAt,value
2019-01-03T00:00:54.798Z,27.50
2019-01-03T00:02:19.338Z,24.50
2019-01-03T00:03:44.360Z,24.00
2019-01-03T00:05:06.025Z,20.50
2019-01-03T00:06:36.833Z,21.00
2019-01-03T00:08:07.946Z,18.50
2019-01-03T00:09:41.135Z,21.00
2019-01-03T00:11:02.897Z,19.00
2019-01-03T00:12:24.918Z,23.00
2019-01-03T00:13:45.571Z,21.50
2019-01-03T00:15:16.311Z,22.00
2019-01-03T00:16:43.801Z,22.00
2019-01-03T00:17:59.128Z,20.50
2019-01-03T00:19:20.774Z,12.50
2019-01-03T00:20:45.633Z,12.50
2019-01-03T00:22:12.970Z,16.50
2019-01-03T00:23:26.647Z,19.50
2019-01-03T00:24:48.236Z,16.00
2019-01-03T00:26:27.716Z,18.50
2019-01-03T00:28:01.269Z,14.00
2019-01-03T00:29:31.397Z,20.50
2019-01-03T00:30:51.312Z,16.50
2019-01-03T00:32:11.464Z,23.00
2019-01-03T00:33:33.041Z,21.50
2019-01-03T00:35:01.522Z,18.00
2019-01-03T00:36:21.819Z,24.50
2019-01-03T00:37:41.746Z,24.50
2019-01-03T00:39:03.348Z,20.00
2019-01-03T00:40:17.518Z,27.50
2019-01-03T00:41:39.198Z,28.50
2019-01-03T00:43:00.789Z,19.50
2019-01-03T00:44:25.398Z,20.50
2019-01-03T00:46:04.812Z,23.00
2019-01-03T00:47:35.236Z,19.00
2019-01-03T00:48:56.861Z,18.00
2019-01-03T00:50:40.243Z,18.50
2019-01-03T00:52:07.248Z,20.00
2019-01-03T00:53:21.374Z,16.50
2019-01-03T00:54:58.351Z,17.50
2019-01-03T00:56:21.644Z,15.00
2019-01-03T00:57:58.376Z,10.50
2019-01-03T00:59:17.910Z,11.50
2019-01-03T01:00:51.521Z,14.00
2019-01-03T01:02:11.455Z,22.50
2019-01-03T01:03:33.123Z,11.50
2019-01-03T01:05:06.580Z,11.50
2019-01-03T01:06:26.597Z,16.50
2019-01-03T01:07:46.617Z,18.00
2019-01-03T01:09:08.574Z,23.00
2019-01-03T01:10:33.301Z,21.00
2019-01-03T01:11:57.484Z,19.00
2019-01-03T01:13:19.093Z,16.50
2019-01-03T01:14:40.999Z,21.00
2019-01-03T01:16:00.981Z,21.50
2019-01-03T01:17:20.936Z,22.00
2019-01-03T01:18:41.203Z,21.50
2019-01-03T01:20:05.761Z,17.00
2019-01-03T01:21:25.938Z,14.00
2019-01-03T01:22:45.881Z,17.50
2019-01-03T01:24:19.327Z,15.50
2019-01-03T01:25:41.306Z,13.00
2019-01-03T01:27:01.673Z,13.00
2019-01-03T01:28:38.308Z,12.50
2019-01-03T01:29:59.980Z,14.50
2019-01-03T01:31:23.928Z,13.50
2019-01-03T01:32:50.384Z,15.50
2019-01-03T01:34:15.826Z,14.00
2019-01-03T01:35:30.202Z,18.00
2019-01-03T01:37:03.712Z,17.00
2019-01-03T01:38:25.281Z,12.50
2019-01-03T01:39:43.460Z,14.50
2019-01-03T01:40:54.747Z,16.50
2019-01-03T01:42:16.696Z,19.00
2019-01-03T01:43:37.456Z,11.00
2019-01-03T01:45:04.866Z,16.00
2019-01-03T01:46:25.130Z,14.00
2019-01-03T01:47:46.757Z,13.50
2019-01-03T01:49:11.457Z,14.50
2019-01-03T01:50:33.033Z,10.00
2019-01-03T01:51:53.130Z,13.00
2019-01-03T01:53:17.733Z,16.50
2019-01-03T01:54:48.341Z,14.00
2019-01-03T01:56:08.389Z,13.50
2019-01-03T01:57:28.659Z,16.00
2019-01-03T01:58:56.615Z,15.50
2019-01-03T02:00:27.295Z,16.50
2019-01-03T02:01:57.677Z,18.00
2019-01-03T02:03:17.942Z,14.00
2019-01-03T02:04:39.833Z,15.00
2019-01-03T02:06:05.111Z,14.50
2019-01-03T02:07:38.917Z,19.00
2019-01-03T02:08:58.775Z,17.50
2019-01-03T02:10:29.618Z,17.50
2019-01-03T02:11:49.699Z,16.50
2019-01-03T02:13:10.095Z,22.50
2019-01-03T02:14:31.067Z,22.00
2019-01-03T02:15:56.055Z,25.00
2019-01-03T02:17:20.324Z,21.50
2019-01-03T02:18:42.012Z,27.50
2019-01-03T02:20:01.998Z,23.00
2019-01-03T02:21:22.665Z,26.00
2019-01-03T02:22:47.354Z,20.00
2019-01-03T02:24:18.210Z,26.00
2019-01-03T02:25:48.759Z,30.50
2019-01-03T02:27:08.783Z,22.00
2019-01-03T02:28:29.097Z,26.00
2019-01-03T02:29:52.785Z,22.00
2019-01-03T02:31:32.455Z,18.00
2019-01-03T02:33:12.050Z,18.00
2019-01-03T02:34:39.304Z,20.00
2019-01-03T02:35:59.565Z,25.50
2019-01-03T02:37:26.272Z,18.00
2019-01-03T02:38:53.755Z,16.50
2019-01-03T02:40:22.094Z,16.00
2019-01-03T02:41:55.622Z,18.50
2019-01-03T02:43:21.909Z,20.50
2019-01-03T02:44:46.538Z,21.00
2019-01-03T02:46:20.821Z,20.00
2019-01-03T02:47:51.602Z,18.00
2019-01-03T02:49:19.212Z,28.00
2019-01-03T02:50:39.169Z,18.00
2019-01-03T02:52:01.074Z,23.50
2019-01-03T02:53:21.695Z,25.50
2019-01-03T02:54:41.747Z,23.50
2019-01-03T02:56:00.724Z,21.50
2019-01-03T02:57:31.799Z,26.50
2019-01-03T02:58:51.220Z,21.50
2019-01-03T03:00:11.313Z,18.00
2019-01-03T03:01:31.315Z,17.00
2019-01-03T03:02:48.236Z,18.00
2019-01-03T03:04:24.800Z,18.00
2019-01-03T03:05:52.368Z,16.00
2019-01-03T03:07:12.290Z,19.00
2019-01-03T03:08:33.824Z,18.00
2019-01-03T03:09:47.209Z,15.50
2019-01-03T03:11:08.898Z,20.00
2019-01-03T03:12:29.874Z,15.50
2019-01-03T03:13:51.496Z,17.50
2019-01-03T03:15:11.834Z,21.50
2019-01-03T03:16:33.491Z,20.00
2019-01-03T03:18:13.035Z,22.00
2019-01-03T03:19:34.636Z,18.00
2019-01-03T03:21:02.787Z,18.00
2019-01-03T03:22:33.119Z,17.00
2019-01-03T03:23:53.118Z,14.00
2019-01-03T03:25:20.479Z,11.50
2019-01-03T03:26:40.905Z,14.00
2019-01-03T03:28:08.208Z,14.50
2019-01-03T03:29:28.572Z,12.50
2019-01-03T03:30:55.707Z,15.50
2019-01-03T03:32:26.640Z,12.00
2019-01-03T03:33:48.254Z,12.50
2019-01-03T03:35:21.118Z,17.50
2019-01-03T03:36:42.778Z,14.00
2019-01-03T03:38:22.553Z,15.50
2019-01-03T03:39:42.730Z,15.00
2019-01-03T03:41:17.663Z,14.00
2019-01-03T03:42:42.974Z,14.00
2019-01-03T03:44:08.036Z,17.00
2019-01-03T03:45:39.817Z,20.00
2019-01-03T03:47:13.466Z,16.50
2019-01-03T03:48:28.805Z,12.00
2019-01-03T03:49:48.888Z,15.50
2019-01-03T03:51:09.366Z,15.50
2019-01-03T03:52:36.842Z,13.00
2019-01-03T03:54:07.666Z,19.50
2019-01-03T03:55:30.940Z,16.00
2019-01-03T03:56:51.323Z,15.00
2019-01-03T03:58:15.744Z,17.50
2019-01-03T03:59:35.709Z,15.50
2019-01-03T04:01:09.294Z,14.50
2019-01-03T04:02:31.277Z,12.50
2019-01-03T04:03:51.744Z,17.50
2019-01-03T04:05:28.840Z,15.50
2019-01-03T04:06:59.410Z,14.50
2019-01-03T04:08:21.737Z,16.00
2019-01-03T04:09:48.514Z,12.50
2019-01-03T04:11:22.355Z,17.50
2019-01-03T04:12:43.998Z,15.50
2019-01-03T04:14:04.207Z,16.50
2019-01-03T04:15:38.061Z,13.50
2019-01-03T04:16:59.672Z,18.00
2019-01-03T04:18:21.345Z,13.50
2019-01-03T04:20:00.775Z,19.50
2019-01-03T04:21:31.770Z,12.50
2019-01-03T04:22:53.930Z,12.00
2019-01-03T04:24:13.668Z,14.00
2019-01-03T04:25:43.605Z,17.50
2019-01-03T04:27:03.547Z,14.50
2019-01-03T04:28:25.960Z,12.00
2019-01-03T04:29:56.677Z,16.00
2019-01-03T04:31:16.625Z,20.50
2019-01-03T04:32:50.119Z,15.50
2019-01-03T04:34:10.146Z,18.00
2019-01-03T04:35:52.866Z,15.50
2019-01-03T04:37:13.164Z,22.50
2019-01-03T04:38:40.530Z,14.50
2019-01-03T04:40:14.623Z,16.50
2019-01-03T04:41:27.609Z,22.50
2019-01-03T04:43:07.481Z,22.50
2019-01-03T04:44:28.551Z,15.00
2019-01-03T04:45:49.285Z,17.00
2019-01-03T04:47:08.561Z,20.00
2019-01-03T04:48:33.163Z,19.50
2019-01-03T04:50:02.399Z,19.50
2019-01-03T04:51:24.278Z,16.00
2019-01-03T04:52:44.548Z,14.00
2019-01-03T04:54:19.104Z,18.00
2019-01-03T04:55:46.897Z,14.00
2019-01-03T04:57:20.739Z,16.00
2019-01-03T04:58:50.854Z,18.00
2019-01-03T05:00:10.811Z,16.00
2019-01-03T05:01:47.352Z,19.50
2019-01-03T05:03:07.342Z,15.00
2019-01-03T05:04:44.518Z,15.50
2019-01-03T05:06:14.829Z,16.50
2019-01-03T05:07:35.861Z,19.50
2019-01-03T05:08:59.709Z,15.00
2019-01-03T05:10:33.344Z,16.00
2019-01-03T05:11:57.693Z,16.00
2019-01-03T05:13:25.270Z,17.50
2019-01-03T05:14:54.543Z,20.50
2019-01-03T05:16:26.532Z,16.50
2019-01-03T05:18:03.098Z,15.50
2019-01-03T05:19:36.576Z,14.50
2019-01-03T05:21:07.587Z,14.50
2019-01-03T05:22:33.088Z,19.00
2019-01-03T05:24:00.451Z,19.00
2019-01-03T05:25:18.787Z,15.50
2019-01-03T05:26:39.307Z,17.50
2019-01-03T05:28:13.019Z,20.00
2019-01-03T05:29:34.617Z,17.00
2019-01-03T05:30:59.184Z,17.00
2019-01-03T05:32:19.341Z,20.50
2019-01-03T05:33:44.810Z,21.50
2019-01-03T05:35:10.419Z,15.50
2019-01-03T05:36:30.589Z,16.00
2019-01-03T05:37:51.335Z,15.00
2019-01-03T05:39:20.527Z,17.50
2019-01-03T05:40:40.762Z,19.50
2019-01-03T05:42:11.886Z,17.50
2019-01-03T05:43:42.172Z,16.50
2019-01-03T05:44:58.567Z,14.00
2019-01-03T05:46:23.168Z,20.50
2019-01-03T05:47:43.225Z,18.50
2019-01-03T05:49:11.028Z,19.50
2019-01-03T05:50:46.815Z,16.50
2019-01-03T05:52:17.377Z,18.00
2019-01-03T05:53:48.333Z,18.50
2019-01-03T05:55:09.914Z,15.00
2019-01-03T05:56:30.293Z,22.00
2019-01-03T05:57:50.935Z,20.00
2019-01-03T05:59:12.533Z,18.50
2019-01-03T06:00:32.833Z,20.50
2019-01-03T06:01:57.449Z,24.00
2019-01-03T06:03:20.055Z,23.00
2019-01-03T06:04:50.833Z,19.00
2019-01-03T06:06:23.372Z,21.50
2019-01-03T06:07:43.638Z,23.50
2019-01-03T06:09:04.012Z,24.00
2019-01-03T06:10:43.656Z,20.00
2019-01-03T06:12:03.195Z,20.50
2019-01-03T06:13:24.240Z,23.50
2019-01-03T06:14:50.268Z,20.00
2019-01-03T06:16:12.170Z,25.00
2019-01-03T06:17:39.914Z,17.50
2019-01-03T06:18:59.986Z,17.50
2019-01-03T06:20:39.901Z,18.00
2019-01-03T06:22:02.200Z,14.50
2019-01-03T06:23:22.459Z,17.00
2019-01-03T06:24:42.778Z,18.00
2019-01-03T06:26:03.243Z,18.00
2019-01-03T06:27:23.204Z,24.00
2019-01-03T06:28:56.614Z,20.00
2019-01-03T06:44:31.251Z,42.00
2019-01-03T06:45:55.738Z,37.75
2019-01-03T06:47:15.931Z,46.50
2019-01-03T06:48:40.987Z,31.00
2019-01-03T06:50:08.410Z,24.00
2019-01-03T06:51:35.917Z,18.00
2019-01-03T06:53:06.762Z,24.00
2019-01-03T06:54:29.965Z,21.00
2019-01-03T06:55:49.976Z,20.50
2019-01-03T06:57:17.539Z,24.50
2019-01-03T06:58:41.953Z,22.00
2019-01-03T07:00:18.467Z,19.50
2019-01-03T07:01:46.430Z,19.00
2019-01-03T07:03:19.663Z,24.50
2019-01-03T07:04:53.419Z,28.00
2019-01-03T07:06:18.373Z,25.50
2019-01-03T07:07:43.010Z,26.00
2019-01-03T07:09:07.421Z,24.00
2019-01-03T07:10:41.640Z,21.50
2019-01-03T07:12:02.117Z,18.50
2019-01-03T07:13:38.686Z,22.00
2019-01-03T07:15:18.287Z,17.00
2019-01-03T07:16:54.909Z,16.00
2019-01-03T07:18:23.025Z,25.50
2019-01-03T07:19:43.040Z,28.00
2019-01-03T07:21:03.053Z,34.00
2019-01-03T07:22:34.869Z,27.00
2019-01-03T07:24:10.307Z,26.50
2019-01-03T07:25:47.314Z,27.00
2019-01-03T07:27:23.734Z,31.00
2019-01-03T07:28:45.327Z,23.50
2019-01-03T07:30:16.329Z,31.50
2019-01-03T07:31:37.989Z,30.00
2019-01-03T07:33:05.804Z,37.00
2019-01-03T07:34:25.804Z,31.00
2019-01-03T07:35:46.268Z,23.50
2019-01-03T07:37:00.189Z,25.00
2019-01-03T07:38:31.363Z,26.00
2019-01-03T07:39:51.395Z,26.50
2019-01-03T07:41:28.239Z,23.50
2019-01-03T07:42:48.361Z,22.00
2019-01-03T07:44:08.411Z,29.00
2019-01-03T07:45:28.350Z,20.50
2019-01-03T07:46:48.595Z,33.00
2019-01-03T07:48:25.243Z,33.50
2019-01-03T07:49:56.182Z,24.00
2019-01-03T07:51:20.846Z,24.50
2019-01-03T07:52:48.970Z,26.00
2019-01-03T07:54:12.461Z,28.00
2019-01-03T07:55:40.738Z,25.50
2019-01-03T07:57:00.815Z,21.00
2019-01-03T07:58:21.371Z,26.50
2019-01-03T08:00:04.704Z,27.00
2019-01-03T08:01:24.737Z,24.50
2019-01-03T08:02:49.717Z,28.00
2019-01-03T08:04:23.511Z,34.50
2019-01-03T08:05:53.486Z,22.50
2019-01-03T08:07:14.691Z,22.00
2019-01-03T08:08:37.111Z,27.00
2019-01-03T08:10:06.949Z,31.00
2019-01-03T08:11:27.144Z,29.00
2019-01-03T08:13:03.742Z,28.00
2019-01-03T08:14:19.912Z,22.00
2019-01-03T08:15:45.757Z,20.00
2019-01-03T08:17:18.267Z,28.00
2019-01-03T08:18:45.882Z,35.50
2019-01-03T08:20:13.534Z,34.00
2019-01-03T08:21:37.959Z,32.50
2019-01-03T08:22:57.950Z,29.00
2019-01-03T08:24:19.548Z,24.00
2019-01-03T08:25:41.150Z,29.50
2019-01-03T08:27:02.736Z,20.00
2019-01-03T08:28:24.113Z,24.00
2019-01-03T08:29:48.496Z,26.50
2019-01-03T08:31:15.344Z,23.00
2019-01-03T08:32:35.566Z,23.50
2019-01-03T08:33:55.968Z,27.50
2019-01-03T08:35:20.647Z,21.00
2019-01-03T08:36:51.479Z,29.00
2019-01-03T08:38:25.121Z,28.00
2019-01-03T08:39:48.791Z,25.00
2019-01-03T08:41:08.791Z,24.00
2019-01-03T08:42:33.785Z,27.50
2019-01-03T08:44:10.100Z,24.50
2019-01-03T08:45:33.073Z,26.50
2019-01-03T08:46:57.409Z,27.50
2019-01-03T08:48:17.718Z,28.00
2019-01-03T08:49:46.091Z,26.00
2019-01-03T08:51:13.846Z,29.50
2019-01-03T08:52:44.822Z,32.00
2019-01-03T08:54:05.330Z,29.00
2019-01-03T08:55:45.231Z,26.50
2019-01-03T08:57:22.322Z,22.00
2019-01-03T08:58:43.899Z,36.00
2019-01-03T09:00:03.809Z,26.50
2019-01-03T09:01:28.739Z,26.00
2019-01-03T09:02:48.901Z,27.00
2019-01-03T09:04:16.238Z,31.00
2019-01-03T09:05:37.854Z,35.50
2019-01-03T09:06:59.524Z,26.00
2019-01-03T09:08:27.108Z,23.00
2019-01-03T09:10:00.840Z,19.00
2019-01-03T09:11:20.773Z,31.50
2019-01-03T09:12:48.037Z,23.00
2019-01-03T09:14:21.836Z,24.50
2019-01-03T09:15:46.173Z,27.50
2019-01-03T09:17:07.055Z,35.00
2019-01-03T09:18:38.517Z,23.00
2019-01-03T09:19:56.131Z,23.00
2019-01-03T09:21:16.235Z,29.00
2019-01-03T09:22:52.894Z,27.00
2019-01-03T09:24:14.607Z,22.50
2019-01-03T09:25:42.204Z,27.50
2019-01-03T09:27:15.629Z,23.00
2019-01-03T09:28:44.005Z,28.00
2019-01-03T09:30:08.792Z,29.50
2019-01-03T09:31:36.116Z,25.50
2019-01-03T09:33:07.221Z,29.00
2019-01-03T09:34:27.224Z,26.50
2019-01-03T09:35:52.024Z,28.50
2019-01-03T09:37:27.117Z,27.50
2019-01-03T09:39:06.864Z,28.50
2019-01-03T09:40:26.202Z,28.00
2019-01-03T09:41:50.991Z,32.00
2019-01-03T09:43:12.285Z,37.00
2019-01-03T09:44:35.089Z,30.00
2019-01-03T09:45:44.061Z,38.50
2019-01-03T09:46:45.281Z,42.00
2019-01-03T09:47:48.225Z,47.00
2019-01-03T09:48:51.145Z,45.50
2019-01-03T09:49:54.656Z,46.00
2019-01-03T09:50:57.621Z,42.50
2019-01-03T09:52:01.132Z,40.50
2019-01-03T09:53:04.076Z,37.50
2019-01-03T09:54:07.015Z,43.00
2019-01-03T09:55:10.096Z,48.50
2019-01-03T09:56:13.940Z,45.50
2019-01-03T09:57:16.967Z,53.00
2019-01-03T09:58:20.431Z,49.00
2019-01-03T09:59:23.378Z,52.50
2019-01-03T10:00:26.317Z,47.50
2019-01-03T10:01:30.067Z,43.50
2019-01-03T10:02:36.969Z,42.50
2019-01-03T10:03:44.968Z,43.00
2019-01-03T10:04:49.991Z,43.00
2019-01-03T10:05:56.739Z,47.50
2019-01-03T10:07:00.252Z,42.50
2019-01-03T10:08:03.286Z,45.00
2019-01-03T10:09:06.976Z,42.50
2019-01-03T10:10:10.208Z,47.00
2019-01-03T10:11:13.242Z,43.50
2019-01-03T10:12:16.656Z,41.50
2019-01-03T10:13:19.588Z,56.50
2019-01-03T10:14:22.567Z,53.00
2019-01-03T10:15:26.113Z,49.00
2019-01-03T10:16:29.179Z,59.00
2019-01-03T10:17:34.578Z,45.00
2019-01-03T10:18:38.097Z,46.50
2019-01-03T10:19:43.261Z,46.00
2019-01-03T10:20:46.670Z,41.00
2019-01-03T10:21:50.443Z,50.50
2019-01-03T10:22:53.381Z,47.50
2019-01-03T10:23:56.404Z,45.00
2019-01-03T10:24:59.464Z,38.00
2019-01-03T10:26:02.432Z,50.00
2019-01-03T10:27:05.345Z,44.50
2019-01-03T10:28:09.335Z,43.00
2019-01-03T10:29:12.403Z,34.50
2019-01-03T10:30:15.478Z,39.00
2019-01-03T10:31:18.496Z,38.00
2019-01-03T10:32:24.231Z,42.00
2019-01-03T10:33:27.198Z,44.50
2019-01-03T10:34:30.480Z,38.00
2019-01-03T10:35:35.050Z,46.00
2019-01-03T10:36:38.361Z,53.00
2019-01-03T10:37:50.442Z,56.00
2019-01-03T10:38:53.449Z,48.50
2019-01-03T10:39:57.563Z,54.50
2019-01-03T10:41:01.926Z,54.50
2019-01-03T10:42:05.010Z,56.50
2019-01-03T10:43:07.997Z,63.00
2019-01-03T10:44:12.782Z,52.50
2019-01-03T10:45:15.508Z,53.00
2019-01-03T10:46:18.945Z,47.50
2019-01-03T10:47:28.089Z,48.50
2019-01-03T10:48:29.476Z,59.50
2019-01-03T10:49:33.719Z,50.00
2019-01-03T10:50:39.653Z,46.00
2019-01-03T10:51:42.722Z,49.00
2019-01-03T10:52:47.431Z,43.50
2019-01-03T10:53:50.433Z,50.50
2019-01-03T10:54:59.512Z,50.00
2019-01-03T10:56:02.552Z,40.00
2019-01-03T10:57:05.972Z,36.50
2019-01-03T10:58:13.928Z,42.50
2019-01-03T10:59:18.870Z,45.00
2019-01-03T11:00:21.546Z,38.50
2019-01-03T11:01:24.854Z,43.00
2019-01-03T11:02:27.819Z,47.50
2019-01-03T11:03:30.923Z,40.50
2019-01-03T11:04:34.332Z,40.00
2019-01-03T11:05:37.287Z,35.00
2019-01-03T11:06:40.331Z,39.50
2019-01-03T11:07:43.599Z,41.50
2019-01-03T11:08:46.588Z,42.00
2019-01-03T11:09:53.061Z,39.00
2019-01-03T11:10:55.221Z,42.00
2019-01-03T11:12:02.772Z,34.50
2019-01-03T11:13:08.169Z,34.00
2019-01-03T11:14:11.142Z,33.00
2019-01-03T11:15:18.817Z,41.50
2019-01-03T11:16:24.505Z,36.50
2019-01-03T11:17:31.494Z,43.50
2019-01-03T11:18:45.802Z,35.00
2019-01-03T11:19:49.214Z,34.00
2019-01-03T11:20:52.403Z,39.50
2019-01-03T11:21:58.788Z,32.00
2019-01-03T11:23:01.875Z,40.50
2019-01-03T11:24:07.959Z,40.00
2019-01-03T11:25:11.161Z,47.00
2019-01-03T11:26:17.034Z,44.00
2019-01-03T11:27:20.177Z,48.50
2019-01-03T11:28:25.286Z,49.50
2019-01-03T11:29:31.526Z,39.50
2019-01-03T11:42:51.510Z,29.25
2019-01-03T11:43:54.483Z,28.00
2019-01-03T11:44:57.552Z,30.25
2019-01-03T11:46:00.864Z,34.75
2019-01-03T11:47:05.852Z,41.75
2019-01-03T11:48:15.050Z,29.50
2019-01-03T11:49:18.575Z,34.00
2019-01-03T11:50:24.114Z,35.50
2019-01-03T11:51:27.059Z,32.25
2019-01-03T11:52:30.207Z,33.25
2019-01-03T11:53:33.246Z,33.75
2019-01-03T11:54:44.667Z,40.00
2019-01-03T11:55:51.188Z,37.50
2019-01-03T11:56:54.179Z,32.00
2019-01-03T11:57:59.056Z,30.00
2019-01-03T11:59:05.244Z,28.50
2019-01-03T12:00:08.263Z,22.00
2019-01-03T12:01:14.305Z,25.00
2019-01-03T12:02:17.661Z,22.00
2019-01-03T12:03:20.694Z,25.50
2019-01-03T12:04:23.631Z,29.50
2019-01-03T12:05:26.728Z,29.00
2019-01-03T12:06:33.622Z,24.50
2019-01-03T12:07:36.999Z,23.50
2019-01-03T12:08:39.958Z,25.00
2019-01-03T12:09:42.945Z,27.00
2019-01-03T12:10:45.975Z,24.00
2019-01-03T12:11:49.508Z,33.50
2019-01-03T12:12:53.220Z,27.00
2019-01-03T12:13:56.551Z,31.00
2019-01-03T12:14:59.989Z,30.50
2019-01-03T12:16:05.819Z,32.00
2019-01-03T12:17:08.809Z,33.50
2019-01-03T12:18:11.864Z,39.50
2019-01-03T12:19:14.796Z,25.50
2019-01-03T12:20:18.051Z,28.00
2019-01-03T12:21:21.593Z,42.00
2019-01-03T12:22:24.632Z,35.00
2019-01-03T12:23:28.877Z,29.00
2019-01-03T12:24:33.868Z,31.00
2019-01-03T12:25:38.255Z,32.50
2019-01-03T12:26:41.931Z,30.50
2019-01-03T12:27:48.316Z,28.50
2019-01-03T12:28:54.982Z,34.50
2019-01-03T12:29:58.244Z,61.00
2019-01-03T12:31:04.671Z,37.50
2019-01-03T12:32:12.205Z,34.00
2019-01-03T12:33:18.596Z,34.50
2019-01-03T12:34:21.642Z,41.00
2019-01-03T12:35:26.758Z,38.00
2019-01-03T12:36:29.812Z,36.50
2019-01-03T12:37:38.597Z,38.00
2019-01-03T12:39:02.624Z,41.00
2019-01-03T12:40:05.612Z,39.00
2019-01-03T12:41:08.569Z,33.50
2019-01-03T12:42:13.658Z,24.50
2019-01-03T12:43:22.660Z,27.00
2019-01-03T12:44:26.053Z,24.50
2019-01-03T12:45:29.887Z,24.00
2019-01-03T12:46:33.251Z,29.00
2019-01-03T12:47:43.921Z,25.00
2019-01-03T12:48:48.483Z,21.50
2019-01-03T12:49:56.598Z,18.00
2019-01-03T12:50:59.598Z,17.50
2019-01-03T12:52:06.313Z,21.50
2019-01-03T12:53:09.271Z,25.00
2019-01-03T12:54:13.214Z,23.50
2019-01-03T12:55:16.315Z,20.00
2019-01-03T12:56:19.420Z,24.00
2019-01-03T12:57:24.837Z,17.50
2019-01-03T12:58:28.073Z,18.00
2019-01-03T12:59:31.076Z,23.50
2019-01-03T13:00:34.451Z,18.00
2019-01-03T13:01:37.390Z,28.00
2019-01-03T13:02:46.086Z,22.00
2019-01-03T13:03:50.943Z,34.00
2019-01-03T13:04:54.116Z,31.00
2019-01-03T13:05:57.104Z,25.50
2019-01-03T13:07:00.170Z,19.50
2019-01-03T13:08:03.255Z,22.00
2019-01-03T13:09:07.710Z,18.50
2019-01-03T13:10:10.841Z,28.50
2019-01-03T13:11:15.669Z,26.00
2019-01-03T13:12:18.755Z,24.50
2019-01-03T13:13:25.316Z,24.00
2019-01-03T13:14:28.331Z,31.00
2019-01-03T13:15:31.539Z,23.50
2019-01-03T13:16:34.545Z,20.50
2019-01-03T13:17:40.644Z,20.50
2019-01-03T13:18:44.140Z,18.00
2019-01-03T13:19:47.226Z,18.00
2019-01-03T13:20:50.245Z,16.50
2019-01-03T13:21:59.102Z,17.50
2019-01-03T13:23:06.790Z,14.00
2019-01-03T13:24:10.271Z,15.00
2019-01-03T13:25:14.118Z,16.50
2019-01-03T13:26:22.157Z,15.00
2019-01-03T13:27:27.533Z,14.00
2019-01-03T13:28:30.446Z,19.00
2019-01-03T13:29:35.026Z,17.50
2019-01-03T13:30:41.390Z,15.00
2019-01-03T13:31:45.244Z,12.00
2019-01-03T13:32:48.385Z,21.00
2019-01-03T13:33:51.329Z,18.00
2019-01-03T13:34:55.609Z,16.00
2019-01-03T13:35:58.647Z,16.00
2019-01-03T13:37:04.763Z,16.50
2019-01-03T13:38:09.925Z,19.50
2019-01-03T13:39:14.005Z,17.00
2019-01-03T13:40:16.932Z,19.00
2019-01-03T13:41:20.514Z,29.00
2019-01-03T13:42:23.576Z,20.00
2019-01-03T13:43:27.656Z,18.50
2019-01-03T13:44:30.611Z,20.50
2019-01-03T13:45:36.316Z,13.50
2019-01-03T13:46:38.789Z,18.00
2019-01-03T13:47:44.346Z,16.00
2019-01-03T13:48:49.945Z,18.00
2019-01-03T13:49:53.671Z,14.00
2019-01-03T13:50:56.742Z,17.50
2019-01-03T13:52:02.108Z,12.50
2019-01-03T13:53:11.237Z,14.50
2019-01-03T13:54:14.596Z,16.50
2019-01-03T13:55:18.178Z,18.00
2019-01-03T13:56:23.248Z,15.50
2019-01-03T13:57:42.224Z,19.00
2019-01-03T13:58:46.364Z,14.50
2019-01-03T13:59:49.424Z,14.00
2019-01-03T14:00:52.408Z,13.50
2019-01-03T14:01:56.411Z,14.50
2019-01-03T14:03:04.053Z,14.00
2019-01-03T14:04:07.620Z,14.00
2019-01-03T14:05:13.948Z,14.00
2019-01-03T14:06:16.878Z,12.50
2019-01-03T14:07:21.968Z,19.75
2019-01-03T14:08:24.894Z,14.50
2019-01-03T14:09:28.283Z,18.00
2019-01-03T14:10:32.469Z,12.00
2019-01-03T14:11:39.315Z,16.00
2019-01-03T14:12:42.528Z,12.00
2019-01-03T14:13:45.562Z,15.50
2019-01-03T14:15:00.018Z,11.75
2019-01-03T14:16:05.222Z,18.50
2019-01-03T14:17:08.507Z,17.50
2019-01-03T14:18:13.693Z,16.25
2019-01-03T14:19:23.694Z,16.50
2019-01-03T14:20:26.766Z,14.00
2019-01-03T14:21:29.811Z,18.00
2019-01-03T14:22:36.030Z,16.50
2019-01-03T14:23:41.394Z,16.25
2019-01-03T14:24:44.839Z,13.75
2019-01-03T14:25:47.940Z,17.50
2019-01-03T14:26:52.290Z,18.50
2019-01-03T14:27:57.676Z,18.25
2019-01-03T14:29:03.824Z,17.75
2019-01-03T14:30:06.774Z,27.00
2019-01-03T14:31:09.813Z,21.75
2019-01-03T14:32:12.753Z,16.25
2019-01-03T14:33:15.788Z,20.50
2019-01-03T14:34:24.212Z,20.00
2019-01-03T14:35:33.001Z,21.00
2019-01-03T14:36:36.004Z,32.50
2019-01-03T14:37:42.825Z,22.00
2019-01-03T14:38:45.866Z,17.50
2019-01-03T14:39:57.156Z,20.25
2019-01-03T14:41:00.435Z,18.50
2019-01-03T14:42:03.464Z,16.50
2019-01-03T14:43:06.502Z,12.25
2019-01-03T14:44:09.424Z,13.75
2019-01-03T14:45:12.426Z,20.00
2019-01-03T14:46:19.015Z,12.00
2019-01-03T14:47:25.344Z,15.50
2019-01-03T14:48:31.291Z,16.00
2019-01-03T14:49:34.930Z,17.00
2019-01-03T14:50:38.318Z,18.50
2019-01-03T14:51:44.566Z,17.50
2019-01-03T14:52:48.267Z,17.00
2019-01-03T14:53:51.725Z,12.00
2019-01-03T14:54:57.583Z,15.50
2019-01-03T14:56:01.178Z,16.00
2019-01-03T14:57:06.323Z,15.00
2019-01-03T14:58:09.358Z,14.00
2019-01-03T14:59:12.863Z,18.00
2019-01-03T15:00:19.279Z,17.50
2019-01-03T15:01:22.461Z,18.00
2019-01-03T15:02:30.234Z,18.50
2019-01-03T15:03:33.699Z,21.00
2019-01-03T15:04:37.255Z,20.50
2019-01-03T15:05:40.747Z,15.50
2019-01-03T15:06:43.828Z,19.50
2019-01-03T15:07:46.941Z,19.50
2019-01-03T15:08:52.992Z,21.00
2019-01-03T15:09:55.978Z,22.00
2019-01-03T15:10:59.071Z,18.50
2019-01-03T15:12:06.135Z,16.00
2019-01-03T15:13:08.814Z,11.50
2019-01-03T15:14:11.826Z,16.50
2019-01-03T15:15:14.802Z,16.00
2019-01-03T15:16:17.844Z,17.50
2019-01-03T15:17:21.489Z,17.00
2019-01-03T15:18:25.007Z,19.50
2019-01-03T15:19:30.891Z,18.00
2019-01-03T15:20:33.944Z,19.00
2019-01-03T15:21:37.274Z,22.00
2019-01-03T15:22:44.303Z,20.00
2019-01-03T15:23:47.844Z,16.50
2019-01-03T15:25:00.495Z,14.00
2019-01-03T15:26:08.072Z,19.50
2019-01-03T15:27:14.370Z,18.00
2019-01-03T15:28:17.458Z,15.50
2019-01-03T15:29:23.316Z,17.00
2019-01-03T15:30:26.659Z,20.50
2019-01-03T15:31:29.844Z,22.00
2019-01-03T15:32:33.033Z,16.00
2019-01-03T15:33:38.096Z,22.00
2019-01-03T15:34:40.771Z,19.00
2019-01-03T15:35:44.038Z,20.00
2019-01-03T15:36:48.858Z,26.00
2019-01-03T15:37:56.230Z,25.50
2019-01-03T15:38:59.165Z,21.00
2019-01-03T15:40:08.972Z,16.50
2019-01-03T15:41:12.080Z,14.00
2019-01-03T15:42:17.055Z,16.50
2019-01-03T15:43:20.588Z,23.50
2019-01-03T15:44:26.568Z,21.50
2019-01-03T15:45:29.536Z,19.00
2019-01-03T15:46:41.859Z,20.00
2019-01-03T15:47:45.953Z,17.50
2019-01-03T15:48:49.756Z,15.50
2019-01-03T15:49:52.822Z,18.50
2019-01-03T15:50:58.219Z,19.00
2019-01-03T15:52:01.340Z,14.00
2019-01-03T15:53:04.276Z,15.50
2019-01-03T15:54:07.370Z,17.50
2019-01-03T15:55:11.719Z,20.50
2019-01-03T15:56:14.771Z,21.50
2019-01-03T15:57:18.214Z,40.50
2019-01-03T15:58:24.231Z,30.50
2019-01-03T15:59:27.437Z,38.00
2019-01-03T16:00:30.381Z,26.00
2019-01-03T16:01:36.038Z,26.50
2019-01-03T16:02:39.311Z,19.00
2019-01-03T16:03:43.876Z,14.00
2019-01-03T16:04:52.176Z,27.00
2019-01-03T16:05:55.441Z,21.00
2019-01-03T16:06:58.627Z,25.00
2019-01-03T16:08:03.339Z,25.00
2019-01-03T16:09:06.609Z,23.00
2019-01-03T16:10:14.801Z,29.00
2019-01-03T16:11:19.179Z,22.50
2019-01-03T16:12:22.337Z,26.50
2019-01-03T16:13:26.688Z,24.00
2019-01-03T16:14:30.529Z,22.00
2019-01-03T16:15:36.420Z,23.00
2019-01-03T16:16:39.432Z,21.00
2019-01-03T16:17:42.386Z,19.00
2019-01-03T16:18:48.385Z,21.50
2019-01-03T16:19:55.409Z,21.00
2019-01-03T16:21:01.703Z,18.00
2019-01-03T16:22:09.691Z,25.00
2019-01-03T16:23:16.126Z,22.50
2019-01-03T16:24:19.063Z,20.50
2019-01-03T16:25:22.109Z,25.00
2019-01-03T16:26:26.547Z,24.00
2019-01-03T16:27:32.562Z,21.00
2019-01-03T16:28:38.365Z,21.50
2019-01-03T16:29:42.085Z,19.50
2019-01-03T16:30:50.622Z,23.50
2019-01-03T16:31:58.098Z,26.00
2019-01-03T16:33:04.080Z,30.50
2019-01-03T16:34:07.359Z,27.00
2019-01-03T16:35:10.844Z,27.50
2019-01-03T16:36:13.814Z,30.50
2019-01-03T16:37:18.252Z,29.50
2019-01-03T16:38:24.128Z,25.50